N1DB BIRK-EKVG
Flight info
| Callsign | N1DB |
|---|---|
| Flight time | 1h 5m |
| Altitude | 41000 |
| Route | LUTER DCT MOXAL DCT MAGNI |
| Aircraft | CL60/M-SBDE1E2E3FGHIJ1J4J5J7M3RWXYZ/LB1V1D1 |
Departure
| Time | 2026-04-23 22:55 |
|---|---|
| Airport | Reykjavík Domestic Airport (BIRK) |
Arrival
| Time | 2026-04-24 00:01 |
|---|---|
| Airport | Vágar Airport (EKVG) |
| Time | Latitude | Longitude | Altitude | Speed | Heading |
|---|---|---|---|---|---|
| 2026-04-23 22:24 | 64.13103 | -21.93477 | 45 ft | 0 kts | 175° |
| 2026-04-23 22:52 | 64.13073 | -21.93490 | 45 ft | 4 kts | 229° |
| 2026-04-23 22:52 | 64.13090 | -21.93556 | 45 ft | 7 kts | 8° |
| 2026-04-23 22:52 | 64.13157 | -21.93555 | 45 ft | 11 kts | 355° |
| 2026-04-23 22:52 | 64.13251 | -21.93578 | 44 ft | 14 kts | 356° |
| 2026-04-23 22:53 | 64.13339 | -21.93588 | 40 ft | 13 kts | 356° |
| 2026-04-23 22:53 | 64.13422 | -21.93605 | 35 ft | 11 kts | 354° |
| 2026-04-23 22:53 | 64.13517 | -21.93623 | 32 ft | 12 kts | 353° |
| 2026-04-23 22:53 | 64.13565 | -21.93658 | 31 ft | 0 kts | 329° |
| 2026-04-23 22:54 | 64.13582 | -21.93685 | 32 ft | 5 kts | 317° |
| 2026-04-23 22:54 | 64.13621 | -21.93786 | 32 ft | 10 kts | 306° |
| 2026-04-23 22:54 | 64.13591 | -21.93887 | 33 ft | 12 kts | 173° |
| 2026-04-23 22:55 | 64.13411 | -21.93852 | 39 ft | 62 kts | 175° |
| 2026-04-23 22:55 | 64.12638 | -21.93699 | 71 ft | 154 kts | 178° |
| 2026-04-23 22:55 | 64.11479 | -21.93530 | 827 ft | 181 kts | 180° |
| 2026-04-23 22:55 | 64.10148 | -21.93309 | 1780 ft | 212 kts | 176° |
| 2026-04-23 22:56 | 64.08603 | -21.92525 | 2771 ft | 245 kts | 155° |
| 2026-04-23 22:56 | 64.07365 | -21.89934 | 4133 ft | 258 kts | 120° |
| 2026-04-23 22:56 | 64.06947 | -21.85991 | 5540 ft | 270 kts | 88° |
| 2026-04-23 22:56 | 64.07102 | -21.81762 | 6998 ft | 279 kts | 84° |
| 2026-04-23 22:57 | 64.07281 | -21.77397 | 8488 ft | 285 kts | 84° |
| 2026-04-23 22:57 | 64.07453 | -21.72937 | 9986 ft | 291 kts | 84° |
| 2026-04-23 22:57 | 64.07625 | -21.68394 | 11434 ft | 295 kts | 84° |
| 2026-04-23 22:57 | 64.07795 | -21.63808 | 12837 ft | 299 kts | 83° |
| 2026-04-23 22:58 | 64.07967 | -21.59103 | 14159 ft | 303 kts | 83° |
| 2026-04-23 22:58 | 64.08134 | -21.54381 | 15392 ft | 308 kts | 83° |
| 2026-04-23 22:58 | 64.08312 | -21.49521 | 16627 ft | 311 kts | 82° |
| 2026-04-23 22:58 | 64.08489 | -21.44646 | 17785 ft | 315 kts | 81° |
| 2026-04-23 22:59 | 64.08666 | -21.39691 | 18863 ft | 319 kts | 81° |
| 2026-04-23 22:59 | 64.08842 | -21.34668 | 19920 ft | 322 kts | 82° |
| 2026-04-23 22:59 | 64.09013 | -21.29618 | 21003 ft | 322 kts | 82° |
| 2026-04-23 22:59 | 64.09182 | -21.24582 | 22062 ft | 321 kts | 82° |
| 2026-04-23 23:00 | 64.09347 | -21.19563 | 23017 ft | 322 kts | 82° |
| 2026-04-23 23:00 | 64.09512 | -21.14518 | 23922 ft | 324 kts | 81° |
| 2026-04-23 23:00 | 64.09676 | -21.09409 | 24789 ft | 326 kts | 82° |
| 2026-04-23 23:00 | 64.09839 | -21.04265 | 25565 ft | 330 kts | 81° |
| 2026-04-23 23:01 | 64.10002 | -20.98999 | 26343 ft | 334 kts | 82° |
| 2026-04-23 23:01 | 64.10164 | -20.93722 | 27078 ft | 337 kts | 82° |
| 2026-04-23 23:01 | 64.10326 | -20.88386 | 27708 ft | 342 kts | 82° |
| 2026-04-23 23:01 | 64.10485 | -20.83002 | 28374 ft | 345 kts | 82° |
| 2026-04-23 23:02 | 64.10644 | -20.77537 | 29014 ft | 348 kts | 82° |
| 2026-04-23 23:02 | 64.10804 | -20.72002 | 29616 ft | 351 kts | 82° |
| 2026-04-23 23:02 | 64.10963 | -20.66421 | 30191 ft | 355 kts | 82° |
| 2026-04-23 23:02 | 64.11120 | -20.60779 | 30715 ft | 358 kts | 82° |
| 2026-04-23 23:03 | 64.11275 | -20.55160 | 31123 ft | 363 kts | 82° |
| 2026-04-23 23:03 | 64.11432 | -20.49358 | 31477 ft | 369 kts | 83° |
| 2026-04-23 23:03 | 64.11590 | -20.43400 | 31868 ft | 375 kts | 83° |
| 2026-04-23 23:03 | 64.11739 | -20.37463 | 32241 ft | 379 kts | 84° |
| 2026-04-23 23:04 | 64.11774 | -20.31386 | 32607 ft | 384 kts | 88° |
| 2026-04-23 23:04 | 64.11723 | -20.25241 | 32970 ft | 388 kts | 89° |
| 2026-04-23 23:04 | 64.11672 | -20.19224 | 33333 ft | 392 kts | 89° |
| 2026-04-23 23:04 | 64.11619 | -20.12982 | 33624 ft | 395 kts | 89° |
| 2026-04-23 23:05 | 64.11562 | -20.06666 | 33886 ft | 400 kts | 89° |
| 2026-04-23 23:05 | 64.11501 | -20.00203 | 34199 ft | 403 kts | 89° |
| 2026-04-23 23:05 | 64.11439 | -19.93807 | 34584 ft | 404 kts | 89° |
| 2026-04-23 23:05 | 64.11374 | -19.87367 | 34992 ft | 403 kts | 90° |
| 2026-04-23 23:06 | 64.11307 | -19.80964 | 35346 ft | 403 kts | 90° |
| 2026-04-23 23:06 | 64.11237 | -19.74551 | 35729 ft | 403 kts | 90° |
| 2026-04-23 23:06 | 64.11166 | -19.68189 | 36077 ft | 404 kts | 90° |
| 2026-04-23 23:06 | 64.11091 | -19.61740 | 36406 ft | 405 kts | 90° |
| 2026-04-23 23:07 | 64.11015 | -19.55208 | 36749 ft | 406 kts | 90° |
| 2026-04-23 23:07 | 64.10938 | -19.48776 | 37072 ft | 406 kts | 90° |
| 2026-04-23 23:07 | 64.10857 | -19.42326 | 37368 ft | 407 kts | 90° |
| 2026-04-23 23:07 | 64.10773 | -19.35856 | 37682 ft | 407 kts | 90° |
| 2026-04-23 23:08 | 64.10685 | -19.29310 | 37964 ft | 408 kts | 91° |
| 2026-04-23 23:08 | 64.10597 | -19.22896 | 38237 ft | 408 kts | 91° |
| 2026-04-23 23:08 | 64.10504 | -19.16381 | 38509 ft | 409 kts | 92° |
| 2026-04-23 23:08 | 64.10407 | -19.09791 | 38761 ft | 410 kts | 92° |
| 2026-04-23 23:09 | 64.10308 | -19.03245 | 39023 ft | 410 kts | 91° |
| 2026-04-23 23:09 | 64.10207 | -18.96777 | 39277 ft | 411 kts | 92° |
| 2026-04-23 23:09 | 64.10101 | -18.90218 | 39541 ft | 411 kts | 92° |
| 2026-04-23 23:09 | 64.09993 | -18.83675 | 39781 ft | 411 kts | 92° |
| 2026-04-23 23:10 | 64.09884 | -18.77174 | 39998 ft | 411 kts | 91° |
| 2026-04-23 23:10 | 64.09776 | -18.70711 | 40226 ft | 411 kts | 91° |
| 2026-04-23 23:10 | 64.09663 | -18.64174 | 40452 ft | 411 kts | 91° |
| 2026-04-23 23:10 | 64.09547 | -18.57664 | 40647 ft | 411 kts | 92° |
| 2026-04-23 23:11 | 64.09427 | -18.51141 | 40826 ft | 412 kts | 91° |
| 2026-04-23 23:11 | 64.09304 | -18.44629 | 41006 ft | 412 kts | 91° |
| 2026-04-23 23:11 | 64.09182 | -18.38030 | 41178 ft | 412 kts | 91° |
| 2026-04-23 23:11 | 64.09058 | -18.31493 | 41294 ft | 414 kts | 92° |
| 2026-04-23 23:12 | 64.08926 | -18.24857 | 41280 ft | 419 kts | 92° |
| 2026-04-23 23:12 | 64.08640 | -18.11454 | 41264 ft | 427 kts | 93° |
| 2026-04-23 23:13 | 64.07992 | -17.97953 | 41259 ft | 434 kts | 104° |
| 2026-04-23 23:13 | 64.06135 | -17.84773 | 41255 ft | 440 kts | 108° |
| 2026-04-23 23:14 | 64.04195 | -17.71495 | 41253 ft | 445 kts | 108° |
| 2026-04-23 23:14 | 64.02223 | -17.58113 | 41275 ft | 449 kts | 108° |
| 2026-04-23 23:15 | 64.00221 | -17.44619 | 41286 ft | 453 kts | 108° |
| 2026-04-23 23:15 | 63.98189 | -17.31011 | 41299 ft | 456 kts | 109° |
| 2026-04-23 23:16 | 63.96123 | -17.17301 | 41305 ft | 459 kts | 109° |
| 2026-04-23 23:16 | 63.94052 | -17.03672 | 41327 ft | 461 kts | 109° |
| 2026-04-23 23:17 | 63.91950 | -16.89953 | 41270 ft | 464 kts | 109° |
| 2026-04-23 23:17 | 63.89817 | -16.76141 | 41247 ft | 464 kts | 109° |
| 2026-04-23 23:18 | 63.87689 | -16.62464 | 41264 ft | 464 kts | 109° |
| 2026-04-23 23:18 | 63.85528 | -16.48681 | 41290 ft | 465 kts | 109° |
| 2026-04-23 23:19 | 63.83364 | -16.34986 | 41297 ft | 465 kts | 110° |
| 2026-04-23 23:19 | 63.81178 | -16.21270 | 41316 ft | 465 kts | 110° |
| 2026-04-23 23:20 | 63.78971 | -16.07518 | 41298 ft | 466 kts | 110° |
| 2026-04-23 23:20 | 63.76771 | -15.93914 | 41302 ft | 465 kts | 110° |
| 2026-04-23 23:21 | 63.74546 | -15.80256 | 41302 ft | 465 kts | 110° |
| 2026-04-23 23:21 | 63.72303 | -15.66583 | 41295 ft | 465 kts | 110° |
| 2026-04-23 23:22 | 63.70058 | -15.52999 | 41315 ft | 466 kts | 110° |
| 2026-04-23 23:22 | 63.67793 | -15.39395 | 41313 ft | 466 kts | 110° |
| 2026-04-23 23:23 | 63.65501 | -15.25728 | 41307 ft | 467 kts | 111° |
| 2026-04-23 23:23 | 63.63217 | -15.12204 | 41315 ft | 467 kts | 112° |
| 2026-04-23 23:24 | 63.60905 | -14.98611 | 41320 ft | 467 kts | 112° |
| 2026-04-23 23:24 | 63.58581 | -14.85047 | 41317 ft | 467 kts | 112° |
| 2026-04-23 23:25 | 63.56258 | -14.71585 | 41322 ft | 467 kts | 112° |
| 2026-04-23 23:25 | 63.53905 | -14.58049 | 41321 ft | 467 kts | 112° |
| 2026-04-23 23:26 | 63.51548 | -14.44585 | 41323 ft | 467 kts | 112° |
| 2026-04-23 23:26 | 63.49182 | -14.31160 | 41325 ft | 467 kts | 113° |
| 2026-04-23 23:27 | 63.46799 | -14.17733 | 41335 ft | 466 kts | 113° |
| 2026-04-23 23:27 | 63.44403 | -14.04327 | 41326 ft | 466 kts | 113° |
| 2026-04-23 23:28 | 63.41997 | -13.90959 | 41338 ft | 466 kts | 113° |
| 2026-04-23 23:28 | 63.39579 | -13.77618 | 41344 ft | 466 kts | 113° |
| 2026-04-23 23:29 | 63.37158 | -13.64348 | 41339 ft | 466 kts | 113° |
| 2026-04-23 23:29 | 63.34706 | -13.51000 | 41345 ft | 466 kts | 113° |
| 2026-04-23 23:30 | 63.32256 | -13.37784 | 41352 ft | 466 kts | 114° |
| 2026-04-23 23:30 | 63.29778 | -13.24517 | 41364 ft | 465 kts | 114° |
| 2026-04-23 23:31 | 63.27298 | -13.11321 | 41355 ft | 465 kts | 114° |
| 2026-04-23 23:31 | 63.24803 | -12.98107 | 41363 ft | 465 kts | 114° |
| 2026-04-23 23:32 | 63.22311 | -12.84961 | 41370 ft | 466 kts | 114° |
| 2026-04-23 23:32 | 63.19804 | -12.71830 | 41366 ft | 466 kts | 114° |
| 2026-04-23 23:33 | 63.17262 | -12.58608 | 41376 ft | 466 kts | 114° |
| 2026-04-23 23:33 | 63.14717 | -12.45465 | 41371 ft | 466 kts | 114° |
| 2026-04-23 23:34 | 63.12174 | -12.32414 | 41367 ft | 466 kts | 115° |
| 2026-04-23 23:34 | 63.09600 | -12.19300 | 41349 ft | 465 kts | 115° |
| 2026-04-23 23:35 | 63.07038 | -12.06324 | 41361 ft | 465 kts | 115° |
| 2026-04-23 23:35 | 63.04462 | -11.93364 | 41357 ft | 464 kts | 115° |
| 2026-04-23 23:36 | 63.01870 | -11.80404 | 41353 ft | 464 kts | 115° |
| 2026-04-23 23:36 | 62.99256 | -11.67425 | 41356 ft | 465 kts | 115° |
| 2026-04-23 23:37 | 62.96646 | -11.54542 | 41374 ft | 465 kts | 115° |
| 2026-04-23 23:37 | 62.94008 | -11.41604 | 41374 ft | 465 kts | 115° |
| 2026-04-23 23:38 | 62.91355 | -11.28679 | 41379 ft | 465 kts | 116° |
| 2026-04-23 23:38 | 62.88692 | -11.15791 | 41275 ft | 466 kts | 116° |
| 2026-04-23 23:38 | 62.87351 | -11.09337 | 40766 ft | 467 kts | 116° |
| 2026-04-23 23:39 | 62.86004 | -11.02862 | 40186 ft | 464 kts | 116° |
| 2026-04-23 23:39 | 62.84673 | -10.96494 | 39592 ft | 462 kts | 116° |
| 2026-04-23 23:39 | 62.83360 | -10.90225 | 38998 ft | 459 kts | 116° |
| 2026-04-23 23:39 | 62.82023 | -10.83864 | 38359 ft | 459 kts | 117° |
| 2026-04-23 23:40 | 62.80696 | -10.77571 | 37785 ft | 457 kts | 117° |
| 2026-04-23 23:40 | 62.79388 | -10.71385 | 37184 ft | 456 kts | 117° |
| 2026-04-23 23:40 | 62.78054 | -10.65096 | 36559 ft | 457 kts | 117° |
| 2026-04-23 23:40 | 62.76719 | -10.58826 | 36035 ft | 463 kts | 118° |
| 2026-04-23 23:41 | 62.75351 | -10.52425 | 35319 ft | 469 kts | 118° |
| 2026-04-23 23:41 | 62.73974 | -10.45994 | 34731 ft | 470 kts | 118° |
| 2026-04-23 23:41 | 62.72578 | -10.39500 | 34041 ft | 475 kts | 119° |
| 2026-04-23 23:41 | 62.71194 | -10.33074 | 33473 ft | 476 kts | 120° |
| 2026-04-23 23:42 | 62.69786 | -10.26564 | 32827 ft | 479 kts | 120° |
| 2026-04-23 23:42 | 62.68366 | -10.20012 | 32197 ft | 480 kts | 120° |
| 2026-04-23 23:42 | 62.66955 | -10.13521 | 31571 ft | 478 kts | 120° |
| 2026-04-23 23:42 | 62.65537 | -10.07017 | 30935 ft | 475 kts | 120° |
| 2026-04-23 23:43 | 62.64132 | -10.00587 | 30301 ft | 471 kts | 120° |
| 2026-04-23 23:43 | 62.62748 | -9.94276 | 29693 ft | 466 kts | 120° |
| 2026-04-23 23:43 | 62.61359 | -9.87961 | 29076 ft | 462 kts | 120° |
| 2026-04-23 23:43 | 62.59998 | -9.81788 | 28473 ft | 456 kts | 120° |
| 2026-04-23 23:44 | 62.58628 | -9.75599 | 27869 ft | 452 kts | 120° |
| 2026-04-23 23:44 | 62.57277 | -9.69509 | 27276 ft | 447 kts | 120° |
| 2026-04-23 23:44 | 62.55951 | -9.63553 | 26692 ft | 443 kts | 120° |
| 2026-04-23 23:44 | 62.54613 | -9.57558 | 26108 ft | 438 kts | 120° |
| 2026-04-23 23:45 | 62.53312 | -9.51768 | 25540 ft | 433 kts | 120° |
| 2026-04-23 23:45 | 62.51987 | -9.45904 | 24975 ft | 429 kts | 120° |
| 2026-04-23 23:45 | 62.50690 | -9.40169 | 24407 ft | 426 kts | 120° |
| 2026-04-23 23:45 | 62.49412 | -9.34523 | 23850 ft | 421 kts | 120° |
| 2026-04-23 23:46 | 62.48124 | -9.28842 | 23291 ft | 416 kts | 120° |
| 2026-04-23 23:46 | 62.46860 | -9.23281 | 22744 ft | 411 kts | 120° |
| 2026-04-23 23:46 | 62.45621 | -9.17840 | 22213 ft | 408 kts | 120° |
| 2026-04-23 23:46 | 62.44371 | -9.12367 | 21671 ft | 406 kts | 120° |
| 2026-04-23 23:47 | 62.43137 | -9.06982 | 21139 ft | 403 kts | 120° |
| 2026-04-23 23:47 | 62.41889 | -9.01547 | 20599 ft | 401 kts | 120° |
| 2026-04-23 23:47 | 62.40668 | -8.96242 | 20075 ft | 398 kts | 120° |
| 2026-04-23 23:47 | 62.39445 | -8.90942 | 19549 ft | 395 kts | 120° |
| 2026-04-23 23:48 | 62.38240 | -8.85730 | 19026 ft | 393 kts | 120° |
| 2026-04-23 23:48 | 62.37019 | -8.80462 | 18502 ft | 390 kts | 120° |
| 2026-04-23 23:48 | 62.35828 | -8.75334 | 17997 ft | 388 kts | 120° |
| 2026-04-23 23:48 | 62.34622 | -8.70152 | 17477 ft | 385 kts | 120° |
| 2026-04-23 23:49 | 62.32256 | -8.60020 | 16454 ft | 379 kts | 120° |
| 2026-04-23 23:49 | 62.31079 | -8.54994 | 15955 ft | 376 kts | 120° |
| 2026-04-23 23:49 | 62.29908 | -8.50009 | 15458 ft | 373 kts | 120° |
| 2026-04-23 23:50 | 62.28750 | -8.45089 | 14967 ft | 370 kts | 120° |
| 2026-04-23 23:50 | 62.27601 | -8.40217 | 14480 ft | 367 kts | 120° |
| 2026-04-23 23:50 | 62.26455 | -8.35362 | 13997 ft | 364 kts | 119° |
| 2026-04-23 23:50 | 62.25316 | -8.30545 | 13516 ft | 357 kts | 120° |
| 2026-04-23 23:51 | 62.24218 | -8.25908 | 13058 ft | 350 kts | 120° |
| 2026-04-23 23:51 | 62.23125 | -8.21313 | 12605 ft | 343 kts | 120° |
| 2026-04-23 23:51 | 62.22051 | -8.16817 | 12152 ft | 336 kts | 120° |
| 2026-04-23 23:51 | 62.20998 | -8.12413 | 11719 ft | 330 kts | 120° |
| 2026-04-23 23:52 | 62.19979 | -8.08139 | 11270 ft | 322 kts | 120° |
| 2026-04-23 23:52 | 62.18975 | -8.03929 | 10869 ft | 313 kts | 119° |
| 2026-04-23 23:52 | 62.18012 | -7.99891 | 10464 ft | 305 kts | 119° |
| 2026-04-23 23:52 | 62.17054 | -7.95888 | 10063 ft | 298 kts | 119° |
| 2026-04-23 23:53 | 62.16128 | -7.92024 | 9674 ft | 291 kts | 119° |
| 2026-04-23 23:53 | 62.15207 | -7.88189 | 9289 ft | 285 kts | 119° |
| 2026-04-23 23:53 | 62.14325 | -7.84516 | 8921 ft | 278 kts | 119° |
| 2026-04-23 23:53 | 62.13445 | -7.80880 | 8558 ft | 273 kts | 120° |
| 2026-04-23 23:54 | 62.12494 | -7.77426 | 8189 ft | 267 kts | 125° |
| 2026-04-23 23:54 | 62.11500 | -7.74167 | 7842 ft | 261 kts | 125° |
| 2026-04-23 23:54 | 62.10527 | -7.70984 | 7467 ft | 256 kts | 125° |
| 2026-04-23 23:54 | 62.09557 | -7.67813 | 7014 ft | 253 kts | 125° |
| 2026-04-23 23:55 | 62.08602 | -7.64698 | 6521 ft | 252 kts | 125° |
| 2026-04-23 23:55 | 62.07642 | -7.61572 | 6040 ft | 250 kts | 125° |
| 2026-04-23 23:55 | 62.06712 | -7.58542 | 5740 ft | 241 kts | 125° |
| 2026-04-23 23:55 | 62.05810 | -7.55607 | 5443 ft | 237 kts | 125° |
| 2026-04-23 23:56 | 62.04910 | -7.52686 | 5083 ft | 236 kts | 125° |
| 2026-04-23 23:56 | 62.04019 | -7.49795 | 4800 ft | 231 kts | 124° |
| 2026-04-23 23:56 | 62.03171 | -7.47043 | 4484 ft | 218 kts | 125° |
| 2026-04-23 23:56 | 62.02363 | -7.44423 | 4209 ft | 206 kts | 125° |
| 2026-04-23 23:57 | 62.01590 | -7.41918 | 3938 ft | 196 kts | 125° |
| 2026-04-23 23:57 | 62.00873 | -7.39594 | 3680 ft | 183 kts | 125° |
| 2026-04-23 23:57 | 62.00207 | -7.37436 | 3359 ft | 166 kts | 126° |
| 2026-04-23 23:57 | 61.99584 | -7.35423 | 3091 ft | 161 kts | 126° |
| 2026-04-23 23:58 | 61.99081 | -7.33328 | 2823 ft | 159 kts | 111° |
| 2026-04-23 23:58 | 61.98896 | -7.31047 | 2589 ft | 159 kts | 92° |
| 2026-04-23 23:58 | 61.99073 | -7.28748 | 2333 ft | 157 kts | 71° |
| 2026-04-23 23:58 | 61.99585 | -7.26731 | 2081 ft | 154 kts | 52° |
| 2026-04-23 23:59 | 62.00347 | -7.25203 | 1835 ft | 151 kts | 34° |
| 2026-04-23 23:59 | 62.01231 | -7.24146 | 1613 ft | 139 kts | 26° |
| 2026-04-23 23:59 | 62.02070 | -7.23213 | 1378 ft | 135 kts | 27° |
| 2026-04-23 23:59 | 62.02894 | -7.22307 | 1167 ft | 132 kts | 22° |
| 2026-04-24 00:00 | 62.03770 | -7.21908 | 949 ft | 129 kts | 358° |
| 2026-04-24 00:00 | 62.04624 | -7.22341 | 766 ft | 126 kts | 332° |
| 2026-04-24 00:00 | 62.05288 | -7.23517 | 579 ft | 124 kts | 306° |
| 2026-04-24 00:00 | 62.05709 | -7.25069 | 412 ft | 123 kts | 296° |
| 2026-04-24 00:01 | 62.06101 | -7.26668 | 266 ft | 116 kts | 297° |
| 2026-04-24 00:01 | 62.06351 | -7.27682 | 285 ft | 48 kts | 298° |
| 2026-04-24 00:01 | 62.06453 | -7.28093 | 285 ft | 14 kts | 298° |
| 2026-04-24 00:01 | 62.06521 | -7.28129 | 285 ft | 12 kts | 24° |
| 2026-04-24 00:02 | 62.06563 | -7.28091 | 285 ft | 6 kts | 13° |
| 2026-04-24 00:02 | 62.06615 | -7.28091 | 285 ft | 8 kts | 359° |
| 2026-04-24 00:02 | 62.06675 | -7.28119 | 285 ft | 5 kts | 336° |
| 2026-04-24 00:02 | 62.06709 | -7.28160 | 285 ft | 5 kts | 350° |
| 2026-04-24 00:03 | 62.06729 | -7.28130 | 285 ft | 4 kts | 73° |
| 2026-04-24 00:03 | 62.06730 | -7.28125 | 285 ft | 0 kts | 72° |